Terminal Aerodrome Forecast
Issued by NWS

Current Version | Previous Version | Text Only | Print | Product List | Glossary On
Versions: 1 2 3 4 5 6 7 8 9 10 11 12
000
FTUS45 KVEF 192320
TAFHND
TAF
KHND 192320Z 2000/2024 32011KT P6SM SCT080 BKN100
     FM200100 32011KT P6SM SCT100
     FM200400 24011KT P6SM FEW120
     FM201100 18008KT P6SM SKC
     FM201800 03007KT P6SM FEW120=

USA.gov is the U.S. government's official web portal to all federal, state and local government web resources and services.